LDPP weather

Public forecast

Using degrees Celsius for public forecast. Weather courtesy of forecast.io.

Closest aviation weather report (METAR) to Pula Seaplane Terminal

Closest report is Pula Airport, 3.4 nm (6.3 km) ENE. Retrieved 2020/08/09 02:30 UTC (26 minutes ago):

LDPL 090230Z 04007KT CAVOK 24/16 Q1016 NOSIG

Closest aviation forecast (TAF) to Pula Seaplane Terminal

Closest forecast is Pula Airport, 3.4 nm (6.3 km) ENE. Retrieved 2020-08-09 00:28 UTC (2 hours ago):

TAF LDPL 082325Z 0900/1000 06008KT CAVOK TX33/0912Z TN20/0903Z BECMG 0912/0914 28013KT BECMG 0918/0920 06008KT